createdAt,value
2022-12-25T00:02:18.022Z,6.18
2022-12-25T00:04:45.908Z,6.53
2022-12-25T00:07:13.987Z,5.80
2022-12-25T00:09:42.276Z,5.03
2022-12-25T00:12:10.180Z,8.20
2022-12-25T00:14:39.445Z,8.07
2022-12-25T00:17:07.747Z,4.97
2022-12-25T00:19:35.702Z,4.25
2022-12-25T00:22:03.575Z,4.85
2022-12-25T00:24:31.882Z,5.05
2022-12-25T00:27:00.162Z,4.05
2022-12-25T00:29:27.950Z,4.65
2022-12-25T00:31:57.257Z,4.45
2022-12-25T00:34:25.296Z,5.07
2022-12-25T00:36:53.677Z,5.38
2022-12-25T00:39:21.605Z,5.00
2022-12-25T00:42:07.043Z,4.53
2022-12-25T00:44:35.741Z,5.18
2022-12-25T00:47:05.403Z,5.20
2022-12-25T00:49:33.260Z,3.85
2022-12-25T00:52:01.886Z,4.55
2022-12-25T00:54:29.781Z,4.57
2022-12-25T00:56:57.577Z,4.20
2022-12-25T00:59:25.427Z,5.50
2022-12-25T01:01:53.638Z,4.50
2022-12-25T01:04:22.938Z,5.10
2022-12-25T01:06:51.334Z,4.70
2022-12-25T01:09:36.520Z,5.45
2022-12-25T01:12:04.959Z,5.32
2022-12-25T01:14:37.047Z,5.75
2022-12-25T01:17:05.460Z,5.45
2022-12-25T01:19:34.646Z,4.70
2022-12-25T01:22:02.741Z,5.10
2022-12-25T01:24:31.109Z,5.47
2022-12-25T01:26:58.948Z,4.05
2022-12-25T01:29:27.597Z,5.00
2022-12-25T01:31:56.009Z,4.28
2022-12-25T01:34:23.897Z,3.58
2022-12-25T01:36:53.156Z,4.20
2022-12-25T01:39:21.797Z,4.70
2022-12-25T01:41:49.743Z,4.82
2022-12-25T01:44:56.856Z,4.45
2022-12-25T01:47:25.081Z,5.20
2022-12-25T01:49:52.920Z,4.45
2022-12-25T01:52:25.000Z,4.18
2022-12-25T01:54:56.628Z,4.25
2022-12-25T01:57:27.079Z,4.80
2022-12-25T01:59:56.148Z,5.15
2022-12-25T02:02:24.518Z,4.72
2022-12-25T02:04:59.833Z,3.63
2022-12-25T02:07:30.947Z,3.65
2022-12-25T02:09:58.766Z,4.22
2022-12-25T02:12:29.980Z,4.90
2022-12-25T02:15:05.776Z,4.28
2022-12-25T02:17:41.757Z,3.08
2022-12-25T02:20:38.807Z,4.22
2022-12-25T02:23:35.071Z,4.00
2022-12-25T02:26:16.795Z,5.10
2022-12-25T02:28:53.246Z,4.43
2022-12-25T02:31:31.161Z,5.32
2022-12-25T02:34:05.387Z,4.55
2022-12-25T02:36:38.796Z,4.88
2022-12-25T02:39:32.283Z,4.25
2022-12-25T02:42:03.597Z,4.53
2022-12-25T02:44:54.291Z,4.97
2022-12-25T02:47:40.017Z,4.57
2022-12-25T02:50:27.664Z,4.10
2022-12-25T02:53:17.344Z,4.00
2022-12-25T02:56:05.894Z,3.40
2022-12-25T02:58:56.293Z,4.15
2022-12-25T03:01:47.823Z,4.15
2022-12-25T03:04:37.329Z,3.17
2022-12-25T03:07:09.509Z,3.20
2022-12-25T03:09:59.325Z,3.83
2022-12-25T03:12:38.595Z,4.47
2022-12-25T03:15:35.283Z,3.88
2022-12-25T03:18:08.604Z,4.28
2022-12-25T03:20:55.796Z,3.70
2022-12-25T03:23:46.798Z,4.35
2022-12-25T03:26:32.466Z,4.60
2022-12-25T03:29:00.448Z,4.20
2022-12-25T03:31:36.710Z,3.90
2022-12-25T03:34:44.971Z,4.10
2022-12-25T03:37:47.155Z,4.97
2022-12-25T03:40:39.133Z,5.50
2022-12-25T03:43:31.266Z,3.83
2022-12-25T03:46:23.428Z,4.30
2022-12-25T03:49:12.907Z,4.15
2022-12-25T03:52:02.705Z,4.47
2022-12-25T03:54:51.990Z,4.60
2022-12-25T03:57:37.402Z,3.97
2022-12-25T04:00:24.064Z,4.80
2022-12-25T04:03:09.816Z,4.40
2022-12-25T04:05:55.581Z,4.50
2022-12-25T04:08:42.664Z,4.78
2022-12-25T04:11:28.168Z,5.53
2022-12-25T04:14:13.428Z,4.25
2022-12-25T04:16:58.674Z,4.35
2022-12-25T04:19:44.119Z,4.75
2022-12-25T04:22:29.456Z,4.30
2022-12-25T04:25:16.556Z,2.97
2022-12-25T04:28:03.087Z,4.22
2022-12-25T04:30:48.834Z,4.00
2022-12-25T04:33:34.901Z,3.55
2022-12-25T04:36:12.118Z,4.32
2022-12-25T04:38:41.624Z,4.10
2022-12-25T04:41:12.813Z,4.45
2022-12-25T04:43:40.921Z,4.97
2022-12-25T04:46:08.905Z,3.70
2022-12-25T04:48:38.339Z,4.30
2022-12-25T04:51:14.957Z,4.05
2022-12-25T04:53:43.215Z,4.22
2022-12-25T04:56:12.820Z,3.55
2022-12-25T04:58:40.757Z,3.78
2022-12-25T05:01:09.203Z,4.15
2022-12-25T05:03:37.636Z,3.97
2022-12-25T05:06:06.708Z,4.55
2022-12-25T05:08:35.884Z,4.75
2022-12-25T05:11:07.251Z,4.80
2022-12-25T05:13:36.751Z,4.55
2022-12-25T05:16:06.885Z,4.50
2022-12-25T05:18:34.738Z,4.03
2022-12-25T05:21:03.111Z,4.30
2022-12-25T05:23:31.430Z,5.03
2022-12-25T05:25:59.687Z,4.20
2022-12-25T05:28:28.153Z,4.80
2022-12-25T05:30:58.949Z,3.95
2022-12-25T05:33:26.865Z,4.13
2022-12-25T05:35:55.154Z,4.10
2022-12-25T05:38:23.012Z,4.57
2022-12-25T05:40:53.134Z,3.53
2022-12-25T05:43:21.207Z,3.50
2022-12-25T05:45:49.113Z,4.28
2022-12-25T05:48:18.739Z,4.80
2022-12-25T05:50:46.728Z,4.35
2022-12-25T05:53:16.901Z,3.63
2022-12-25T05:55:45.652Z,4.53
2022-12-25T05:58:14.354Z,3.83
2022-12-25T06:00:44.744Z,3.55
2022-12-25T06:03:12.781Z,3.30
2022-12-25T06:05:42.394Z,4.43
2022-12-25T06:08:12.888Z,4.07
2022-12-25T06:10:40.792Z,3.97
2022-12-25T06:13:08.609Z,4.30
2022-12-25T06:15:40.747Z,3.97
2022-12-25T06:18:09.418Z,4.70
2022-12-25T06:20:37.876Z,4.00
2022-12-25T06:23:07.162Z,4.15
2022-12-25T06:25:34.972Z,4.20
2022-12-25T06:28:02.746Z,4.18
2022-12-25T06:30:31.103Z,3.80
2022-12-25T06:32:59.963Z,3.95
2022-12-25T06:35:28.377Z,2.67
2022-12-25T06:37:57.226Z,3.42
2022-12-25T06:40:26.565Z,3.58
2022-12-25T06:42:54.691Z,3.13
2022-12-25T06:45:23.174Z,3.75
2022-12-25T06:47:51.099Z,2.88
2022-12-25T06:50:18.966Z,4.03
2022-12-25T06:52:47.108Z,4.10
2022-12-25T06:55:15.113Z,3.47
2022-12-25T06:57:44.337Z,3.75
2022-12-25T07:00:13.110Z,3.72
2022-12-25T07:02:47.690Z,3.40
2022-12-25T07:05:16.030Z,4.22
2022-12-25T07:07:43.867Z,3.35
2022-12-25T07:10:12.472Z,4.35
2022-12-25T07:12:40.949Z,3.20
2022-12-25T07:15:11.622Z,3.38
2022-12-25T07:17:39.855Z,3.50
2022-12-25T07:20:09.016Z,3.00
2022-12-25T07:22:37.259Z,3.67
2022-12-25T07:25:05.522Z,3.80
2022-12-25T07:27:33.374Z,4.18
2022-12-25T07:30:01.579Z,3.92
2022-12-25T07:32:32.639Z,4.93
2022-12-25T07:35:00.494Z,4.55
2022-12-25T07:37:28.708Z,4.28
2022-12-25T07:39:56.751Z,4.70
2022-12-25T07:42:25.581Z,5.28
2022-12-25T07:44:53.530Z,5.97
2022-12-25T07:47:21.663Z,5.53
2022-12-25T07:49:51.391Z,5.05
2022-12-25T07:52:19.193Z,4.78
2022-12-25T07:54:47.057Z,4.65
2022-12-25T07:57:15.328Z,5.18
2022-12-25T07:59:43.235Z,4.50
2022-12-25T08:02:11.705Z,4.40
2022-12-25T08:04:40.139Z,4.25
2022-12-25T08:07:09.266Z,3.97
2022-12-25T08:09:37.368Z,4.65
2022-12-25T08:12:05.915Z,4.60
2022-12-25T08:14:33.717Z,4.82
2022-12-25T08:17:01.994Z,3.40
2022-12-25T08:19:30.546Z,3.65
2022-12-25T08:21:58.665Z,4.50
2022-12-25T08:24:28.111Z,4.80
2022-12-25T08:26:56.181Z,5.72
2022-12-25T08:29:24.062Z,5.38
2022-12-25T08:31:52.328Z,5.50
2022-12-25T08:34:20.234Z,6.47
2022-12-25T08:36:48.136Z,7.35
2022-12-25T08:39:16.684Z,5.82
2022-12-25T08:41:45.834Z,5.28
2022-12-25T08:44:14.175Z,5.43
2022-12-25T08:46:42.204Z,5.10
2022-12-25T08:49:10.157Z,6.82
2022-12-25T08:51:39.093Z,4.10
2022-12-25T08:54:07.696Z,6.18
2022-12-25T08:56:36.623Z,3.65
2022-12-25T08:59:05.884Z,3.67
2022-12-25T09:01:34.613Z,4.95
2022-12-25T09:04:02.497Z,3.88
2022-12-25T09:06:30.394Z,4.20
2022-12-25T09:08:58.914Z,5.15
2022-12-25T09:11:26.741Z,4.60
2022-12-25T09:13:54.666Z,4.32
2022-12-25T09:16:24.700Z,4.03
2022-12-25T09:18:52.600Z,3.70
2022-12-25T09:21:20.815Z,4.15
2022-12-25T09:23:50.601Z,4.00
2022-12-25T09:26:20.341Z,3.30
2022-12-25T09:28:51.834Z,4.78
2022-12-25T09:31:21.077Z,4.70
2022-12-25T09:33:50.695Z,5.05
2022-12-25T09:36:18.825Z,4.50
2022-12-25T09:38:46.950Z,5.10
2022-12-25T09:41:19.432Z,5.95
2022-12-25T09:43:51.660Z,7.10
2022-12-25T09:46:22.546Z,6.22
2022-12-25T09:49:02.820Z,3.47
2022-12-25T09:51:35.345Z,4.85
2022-12-25T09:54:10.907Z,6.20
2022-12-25T09:56:39.205Z,6.68
2022-12-25T09:59:19.884Z,6.68
2022-12-25T10:02:21.758Z,5.85
2022-12-25T10:05:06.719Z,7.30
2022-12-25T10:07:44.868Z,7.38
2022-12-25T10:10:27.458Z,6.60
2022-12-25T10:13:06.121Z,8.38
2022-12-25T10:15:45.054Z,7.30
2022-12-25T10:18:37.021Z,5.72
2022-12-25T10:21:13.406Z,4.57
2022-12-25T10:23:45.297Z,4.57
2022-12-25T10:26:16.874Z,4.47
2022-12-25T10:28:46.978Z,5.30
2022-12-25T10:31:22.450Z,4.20
2022-12-25T10:33:52.760Z,4.35
2022-12-25T10:36:26.205Z,4.28
2022-12-25T10:38:55.271Z,4.00
2022-12-25T10:41:50.929Z,3.55
2022-12-25T10:44:20.931Z,3.08
2022-12-25T10:46:50.365Z,4.95
2022-12-25T10:49:20.841Z,3.85
2022-12-25T10:51:51.808Z,4.07
2022-12-25T10:54:25.873Z,3.83
2022-12-25T10:56:55.648Z,3.88
2022-12-25T10:59:24.143Z,4.63
2022-12-25T11:01:55.234Z,4.03
2022-12-25T11:04:28.683Z,3.85
2022-12-25T11:07:00.570Z,3.92
2022-12-25T11:09:28.849Z,3.72
2022-12-25T11:11:57.087Z,3.95
2022-12-25T11:14:25.616Z,3.85
2022-12-25T11:16:53.422Z,4.22
2022-12-25T11:19:30.538Z,3.75
2022-12-25T11:22:01.755Z,4.22
2022-12-25T11:24:31.970Z,7.03
2022-12-25T11:27:02.986Z,5.10
2022-12-25T11:29:39.374Z,4.03
2022-12-25T11:32:17.601Z,4.15
2022-12-25T11:34:48.098Z,5.10
2022-12-25T11:37:21.271Z,3.45
2022-12-25T11:39:49.504Z,3.70
2022-12-25T11:42:24.137Z,2.80
2022-12-25T11:44:58.290Z,3.58
2022-12-25T11:47:32.336Z,4.07
2022-12-25T11:50:06.294Z,3.70
2022-12-25T11:52:38.643Z,3.25
2022-12-25T11:55:19.814Z,4.20
2022-12-25T11:57:54.419Z,3.70
2022-12-25T12:00:23.147Z,4.78
2022-12-25T12:02:58.939Z,4.55
2022-12-25T12:05:33.738Z,5.30
2022-12-25T12:08:05.527Z,3.70
2022-12-25T12:10:58.489Z,3.97
2022-12-25T12:13:41.195Z,3.47
2022-12-25T12:16:11.148Z,3.95
2022-12-25T12:18:38.975Z,3.83
2022-12-25T12:21:11.330Z,3.83
2022-12-25T12:23:54.331Z,3.72
2022-12-25T12:26:24.960Z,3.28
2022-12-25T12:28:55.662Z,3.63
2022-12-25T12:31:24.323Z,2.92
2022-12-25T12:33:57.408Z,2.95
2022-12-25T12:36:36.096Z,3.35
2022-12-25T12:39:07.037Z,2.67
2022-12-25T12:41:45.879Z,2.72
2022-12-25T12:44:15.978Z,3.03
2022-12-25T12:46:52.948Z,3.08
2022-12-25T12:49:26.755Z,2.83
2022-12-25T12:52:06.403Z,2.67
2022-12-25T12:54:54.037Z,3.53
2022-12-25T12:57:27.007Z,2.95
2022-12-25T12:59:55.475Z,4.25
2022-12-25T13:02:48.595Z,3.78
2022-12-25T13:05:32.219Z,2.92
2022-12-25T13:08:13.590Z,2.97
2022-12-25T13:10:48.415Z,3.60
2022-12-25T13:13:21.561Z,3.42
2022-12-25T13:15:51.858Z,3.08
2022-12-25T13:18:20.133Z,2.67
2022-12-25T13:20:55.282Z,3.22
2022-12-25T13:23:27.975Z,3.40
2022-12-25T13:25:59.198Z,3.05
2022-12-25T13:28:28.900Z,2.83
2022-12-25T13:31:04.625Z,2.95
2022-12-25T13:33:32.664Z,2.90
2022-12-25T13:36:00.606Z,3.67
2022-12-25T13:38:30.697Z,3.28
2022-12-25T13:41:17.723Z,3.55
2022-12-25T13:43:47.361Z,3.72
2022-12-25T13:46:16.335Z,2.53
2022-12-25T13:48:44.391Z,4.38
2022-12-25T13:51:17.369Z,3.45
2022-12-25T13:53:45.870Z,3.10
2022-12-25T13:56:17.177Z,3.53
2022-12-25T13:58:49.490Z,3.53
2022-12-25T14:01:18.803Z,3.58
2022-12-25T14:03:48.248Z,3.25
2022-12-25T14:06:20.595Z,3.53
2022-12-25T14:08:49.611Z,4.30
2022-12-25T14:11:22.629Z,3.20
2022-12-25T14:13:53.545Z,3.03
2022-12-25T14:16:23.170Z,3.03
2022-12-25T14:18:53.405Z,3.33
2022-12-25T14:21:29.626Z,3.28
2022-12-25T14:23:57.897Z,3.25
2022-12-25T14:26:30.377Z,3.28
2022-12-25T14:29:15.650Z,3.20
2022-12-25T14:31:46.849Z,3.33
2022-12-25T14:34:19.530Z,4.25
2022-12-25T14:36:47.977Z,5.38
2022-12-25T14:39:29.059Z,6.22
2022-12-25T14:41:58.595Z,7.78
2022-12-25T14:44:32.474Z,11.20
2022-12-25T14:47:15.652Z,16.85
2022-12-25T14:49:44.045Z,8.63
2022-12-25T14:52:19.048Z,6.03
2022-12-25T14:54:49.783Z,5.22
2022-12-25T14:57:29.838Z,4.63
2022-12-25T15:00:04.320Z,4.43
2022-12-25T15:02:41.638Z,4.13
2022-12-25T15:05:32.223Z,4.13
2022-12-25T15:08:20.564Z,3.45
2022-12-25T15:11:05.647Z,5.18
2022-12-25T15:13:35.320Z,5.57
2022-12-25T15:16:07.812Z,4.70
2022-12-25T15:18:41.261Z,7.75
2022-12-25T15:21:17.955Z,7.05
2022-12-25T15:23:45.941Z,15.02
2022-12-25T15:26:15.331Z,11.35
2022-12-25T15:28:45.188Z,11.32
2022-12-25T15:31:22.066Z,12.75
2022-12-25T15:33:50.874Z,6.25
2022-12-25T15:36:18.797Z,5.80
2022-12-25T15:38:46.635Z,4.85
2022-12-25T15:41:32.219Z,4.85
2022-12-25T15:44:02.337Z,4.03
2022-12-25T15:46:30.559Z,3.45
2022-12-25T15:48:59.034Z,3.20
2022-12-25T15:51:27.050Z,3.10
2022-12-25T15:53:55.033Z,3.80
2022-12-25T15:56:24.017Z,3.28
2022-12-25T15:58:51.991Z,3.85
2022-12-25T16:01:22.228Z,3.38
2022-12-25T16:03:51.563Z,3.88
2022-12-25T16:06:20.007Z,3.58
2022-12-25T16:08:47.941Z,4.03
2022-12-25T16:11:15.907Z,3.75
2022-12-25T16:13:44.264Z,4.93
2022-12-25T16:16:12.405Z,4.05
2022-12-25T16:18:47.368Z,4.07
2022-12-25T16:21:18.782Z,3.97
2022-12-25T16:23:47.030Z,3.50
2022-12-25T16:26:14.888Z,4.57
2022-12-25T16:28:42.712Z,3.95
2022-12-25T16:31:12.250Z,3.83
2022-12-25T16:33:41.541Z,3.03
2022-12-25T16:36:10.099Z,3.10
2022-12-25T16:38:38.926Z,3.75
2022-12-25T16:41:07.152Z,3.88
2022-12-25T16:43:34.936Z,3.70
2022-12-25T16:46:03.064Z,4.95
2022-12-25T16:48:30.927Z,5.30
2022-12-25T16:51:00.389Z,5.35
2022-12-25T16:53:28.568Z,5.70
2022-12-25T16:56:06.313Z,5.25
2022-12-25T16:58:34.851Z,5.35
2022-12-25T17:01:07.760Z,5.03
2022-12-25T17:03:36.028Z,5.35
2022-12-25T17:06:06.402Z,5.75
2022-12-25T17:08:34.225Z,4.90
2022-12-25T17:11:06.273Z,4.82
2022-12-25T17:13:34.145Z,5.20
2022-12-25T17:16:12.123Z,5.65
2022-12-25T17:18:39.966Z,6.03
2022-12-25T17:21:09.492Z,5.47
2022-12-25T17:23:38.868Z,5.68
2022-12-25T17:26:07.328Z,6.05
2022-12-25T17:28:35.823Z,4.97
2022-12-25T17:31:04.737Z,5.25
2022-12-25T17:33:33.864Z,5.65
2022-12-25T17:36:06.340Z,5.57
2022-12-25T17:38:35.876Z,5.30
2022-12-25T17:41:07.121Z,5.32
2022-12-25T17:43:37.220Z,4.82
2022-12-25T17:46:06.978Z,4.80
2022-12-25T17:48:36.595Z,4.68
2022-12-25T17:51:05.820Z,5.28
2022-12-25T17:53:36.600Z,4.40
2022-12-25T17:56:07.222Z,4.47
2022-12-25T17:58:35.072Z,5.00
2022-12-25T18:01:07.473Z,6.22
2022-12-25T18:03:36.693Z,5.18
2022-12-25T18:06:04.885Z,4.50
2022-12-25T18:08:39.025Z,4.60
2022-12-25T18:11:15.136Z,4.65
2022-12-25T18:13:43.860Z,4.85
2022-12-25T18:16:13.606Z,3.75
2022-12-25T18:18:49.532Z,4.28
2022-12-25T18:21:20.451Z,3.35
2022-12-25T18:23:49.351Z,4.28
2022-12-25T18:26:19.376Z,3.45
2022-12-25T18:28:47.900Z,3.72
2022-12-25T18:31:18.015Z,3.50
2022-12-25T18:33:46.907Z,3.75
2022-12-25T18:36:16.875Z,3.83
2022-12-25T18:38:44.739Z,3.35
2022-12-25T18:41:13.204Z,3.78
2022-12-25T18:43:52.062Z,3.92
2022-12-25T18:46:24.224Z,3.03
2022-12-25T18:48:53.314Z,3.42
2022-12-25T18:51:21.174Z,3.85
2022-12-25T18:53:48.974Z,3.53
2022-12-25T18:56:18.838Z,3.67
2022-12-25T18:58:48.502Z,3.90
2022-12-25T19:01:18.705Z,3.72
2022-12-25T19:03:48.898Z,7.68
2022-12-25T19:06:21.140Z,3.58
2022-12-25T19:08:49.598Z,3.83
2022-12-25T19:11:18.091Z,3.33
2022-12-25T19:13:47.992Z,10.25
2022-12-25T19:16:16.656Z,3.20
2022-12-25T19:18:45.260Z,3.33
2022-12-25T19:21:13.671Z,3.90
2022-12-25T19:23:41.996Z,3.63
2022-12-25T19:26:11.261Z,3.45
2022-12-25T19:28:40.375Z,3.38
2022-12-25T19:31:10.961Z,3.20
2022-12-25T19:33:41.429Z,3.67
2022-12-25T19:36:12.017Z,3.65
2022-12-25T19:38:39.901Z,3.45
2022-12-25T19:41:08.773Z,3.22
2022-12-25T19:43:38.536Z,4.10
2022-12-25T19:46:08.768Z,3.58
2022-12-25T19:48:38.873Z,3.25
2022-12-25T19:51:16.251Z,3.83
2022-12-25T19:53:44.102Z,3.92
2022-12-25T19:56:11.976Z,3.95
2022-12-25T19:58:40.487Z,3.80
2022-12-25T20:01:10.244Z,4.55
2022-12-25T20:03:46.145Z,3.42
2022-12-25T20:06:19.866Z,4.03
2022-12-25T20:08:48.429Z,4.35
2022-12-25T20:11:16.870Z,4.93
2022-12-25T20:13:45.199Z,3.53
2022-12-25T20:16:13.642Z,4.50
2022-12-25T20:18:43.388Z,5.10
2022-12-25T20:21:14.524Z,6.22
2022-12-25T20:23:42.634Z,5.78
2022-12-25T20:26:12.030Z,5.53
2022-12-25T20:28:43.720Z,5.05
2022-12-25T20:31:14.947Z,4.47
2022-12-25T20:33:48.827Z,4.45
2022-12-25T20:36:18.481Z,4.57
2022-12-25T20:38:46.665Z,4.18
2022-12-25T20:41:32.430Z,4.15
2022-12-25T20:44:01.888Z,3.88
2022-12-25T20:46:30.148Z,6.15
2022-12-25T20:48:59.878Z,4.90
2022-12-25T20:51:28.634Z,5.18
2022-12-25T20:53:57.079Z,5.40
2022-12-25T20:56:27.552Z,5.68
2022-12-25T20:58:56.276Z,5.75
2022-12-25T21:01:27.844Z,5.90
2022-12-25T21:03:56.200Z,5.68
2022-12-25T21:06:25.988Z,6.93
2022-12-25T21:08:57.569Z,7.22
2022-12-25T21:11:25.468Z,5.15
2022-12-25T21:13:53.958Z,5.97
2022-12-25T21:16:23.500Z,5.18
2022-12-25T21:18:54.343Z,5.15
2022-12-25T21:21:23.940Z,4.88
2022-12-25T21:23:56.404Z,5.20
2022-12-25T21:26:26.455Z,5.15
2022-12-25T21:28:57.738Z,4.60
2022-12-25T21:31:26.492Z,4.32
2022-12-25T21:33:55.367Z,5.03
2022-12-25T21:36:27.613Z,4.78
2022-12-25T21:38:59.157Z,4.70
2022-12-25T21:41:28.299Z,4.43
2022-12-25T21:43:56.988Z,4.93
2022-12-25T21:46:27.974Z,5.25
2022-12-25T21:48:57.299Z,5.40
2022-12-25T21:51:44.915Z,5.25
2022-12-25T21:54:15.896Z,5.50
2022-12-25T21:56:45.680Z,5.63
2022-12-25T21:59:16.025Z,5.10
2022-12-25T22:01:44.476Z,4.88
2022-12-25T22:04:15.285Z,4.80
2022-12-25T22:07:00.803Z,4.68
2022-12-25T22:09:30.629Z,5.18
2022-12-25T22:12:16.262Z,4.10
2022-12-25T22:14:56.256Z,4.28
2022-12-25T22:17:44.994Z,3.83
2022-12-25T22:20:16.251Z,4.55
2022-12-25T22:22:44.550Z,3.72
2022-12-25T22:25:15.135Z,3.65
2022-12-25T22:27:44.607Z,3.60
2022-12-25T22:30:15.596Z,3.72
2022-12-25T22:32:44.139Z,4.45
2022-12-25T22:35:13.246Z,4.63
2022-12-25T22:37:42.514Z,3.53
2022-12-25T22:40:15.070Z,3.90
2022-12-25T22:42:43.875Z,2.92
2022-12-25T22:45:12.812Z,3.72
2022-12-25T22:47:41.461Z,3.83
2022-12-25T22:50:10.335Z,3.55
2022-12-25T22:52:38.261Z,3.92
2022-12-25T22:55:08.426Z,3.40
2022-12-25T22:57:37.705Z,3.35
2022-12-25T23:00:09.227Z,3.40
2022-12-25T23:02:37.531Z,3.10
2022-12-25T23:05:06.075Z,3.35
2022-12-25T23:07:34.270Z,3.28
2022-12-25T23:10:02.122Z,3.38
2022-12-25T23:12:50.212Z,3.60
2022-12-25T23:15:19.646Z,3.35
2022-12-25T23:18:05.442Z,3.58
2022-12-25T23:20:51.357Z,4.07
2022-12-25T23:23:36.946Z,3.22
2022-12-25T23:26:11.725Z,3.28
2022-12-25T23:28:59.559Z,3.95
2022-12-25T23:31:31.848Z,3.60
2022-12-25T23:33:59.975Z,3.72
2022-12-25T23:36:27.976Z,3.72
2022-12-25T23:38:56.197Z,4.13
2022-12-25T23:41:24.853Z,3.88
2022-12-25T23:43:52.888Z,3.65
2022-12-25T23:46:21.281Z,4.03
2022-12-25T23:48:50.928Z,3.33
2022-12-25T23:51:19.214Z,2.90
2022-12-25T23:53:47.002Z,4.03
2022-12-25T23:56:15.381Z,3.85
2022-12-25T23:58:45.289Z,3.75
